sensor_id;sensor_type;location;lat;lon;timestamp;P1;durP1;ratioP1;P2;durP2;ratioP2
1428;SDS011;708;51.442;7.016;2024-01-30T00:01:58;4.18;;;3.97;;
1428;SDS011;708;51.442;7.016;2024-01-30T00:04:26;6.00;;;5.70;;
1428;SDS011;708;51.442;7.016;2024-01-30T00:06:53;5.88;;;5.68;;
1428;SDS011;708;51.442;7.016;2024-01-30T00:09:20;4.85;;;4.65;;
1428;SDS011;708;51.442;7.016;2024-01-30T00:11:46;4.55;;;4.35;;
1428;SDS011;708;51.442;7.016;2024-01-30T00:14:13;5.35;;;5.15;;
1428;SDS011;708;51.442;7.016;2024-01-30T00:16:40;4.43;;;4.22;;
1428;SDS011;708;51.442;7.016;2024-01-30T00:19:08;4.72;;;4.53;;
1428;SDS011;708;51.442;7.016;2024-01-30T00:21:36;4.70;;;4.50;;
1428;SDS011;708;51.442;7.016;2024-01-30T00:24:03;4.07;;;3.88;;
1428;SDS011;708;51.442;7.016;2024-01-30T00:26:30;5.50;;;5.20;;
1428;SDS011;708;51.442;7.016;2024-01-30T00:28:57;4.85;;;4.65;;
1428;SDS011;708;51.442;7.016;2024-01-30T00:31:24;4.35;;;4.15;;
1428;SDS011;708;51.442;7.016;2024-01-30T00:33:50;5.60;;;5.40;;
1428;SDS011;708;51.442;7.016;2024-01-30T00:36:17;6.20;;;5.95;;
1428;SDS011;708;51.442;7.016;2024-01-30T00:38:46;7.18;;;5.53;;
1428;SDS011;708;51.442;7.016;2024-01-30T00:41:13;5.35;;;5.15;;
1428;SDS011;708;51.442;7.016;2024-01-30T00:43:40;5.95;;;5.60;;
1428;SDS011;708;51.442;7.016;2024-01-30T00:46:07;4.32;;;4.13;;
1428;SDS011;708;51.442;7.016;2024-01-30T00:48:34;3.60;;;3.50;;
1428;SDS011;708;51.442;7.016;2024-01-30T00:51:00;3.97;;;3.78;;
1428;SDS011;708;51.442;7.016;2024-01-30T00:53:27;3.80;;;3.60;;
1428;SDS011;708;51.442;7.016;2024-01-30T00:55:55;4.15;;;3.95;;
1428;SDS011;708;51.442;7.016;2024-01-30T00:58:22;4.20;;;4.00;;
1428;SDS011;708;51.442;7.016;2024-01-30T01:00:49;3.78;;;3.58;;
1428;SDS011;708;51.442;7.016;2024-01-30T01:03:17;4.82;;;4.63;;
1428;SDS011;708;51.442;7.016;2024-01-30T01:05:43;5.13;;;4.93;;
1428;SDS011;708;51.442;7.016;2024-01-30T01:08:10;5.22;;;4.93;;
1428;SDS011;708;51.442;7.016;2024-01-30T01:10:37;6.18;;;5.78;;
1428;SDS011;708;51.442;7.016;2024-01-30T01:13:05;4.60;;;4.40;;
1428;SDS011;708;51.442;7.016;2024-01-30T01:15:32;4.78;;;4.57;;
1428;SDS011;708;51.442;7.016;2024-01-30T01:17:59;4.70;;;4.50;;
1428;SDS011;708;51.442;7.016;2024-01-30T01:20:26;4.45;;;4.25;;
1428;SDS011;708;51.442;7.016;2024-01-30T01:22:53;5.13;;;4.93;;
1428;SDS011;708;51.442;7.016;2024-01-30T01:25:19;5.30;;;5.10;;
1428;SDS011;708;51.442;7.016;2024-01-30T01:27:46;4.63;;;4.43;;
1428;SDS011;708;51.442;7.016;2024-01-30T01:30:18;4.35;;;4.15;;
1428;SDS011;708;51.442;7.016;2024-01-30T01:32:46;5.10;;;4.90;;
1428;SDS011;708;51.442;7.016;2024-01-30T01:35:19;4.60;;;4.40;;
1428;SDS011;708;51.442;7.016;2024-01-30T01:37:47;4.88;;;4.68;;
1428;SDS011;708;51.442;7.016;2024-01-30T01:40:19;4.65;;;4.45;;
1428;SDS011;708;51.442;7.016;2024-01-30T01:42:47;5.22;;;5.03;;
1428;SDS011;708;51.442;7.016;2024-01-30T01:45:15;4.75;;;4.55;;
1428;SDS011;708;51.442;7.016;2024-01-30T01:47:43;4.30;;;4.10;;
1428;SDS011;708;51.442;7.016;2024-01-30T01:50:12;7.60;;;7.15;;
1428;SDS011;708;51.442;7.016;2024-01-30T01:52:39;4.65;;;4.45;;
1428;SDS011;708;51.442;7.016;2024-01-30T01:55:07;4.47;;;4.28;;
1428;SDS011;708;51.442;7.016;2024-01-30T01:57:34;4.47;;;4.28;;
1428;SDS011;708;51.442;7.016;2024-01-30T02:00:01;5.13;;;4.93;;
1428;SDS011;708;51.442;7.016;2024-01-30T02:02:30;4.10;;;3.90;;
1428;SDS011;708;51.442;7.016;2024-01-30T02:05:00;4.93;;;4.72;;
1428;SDS011;708;51.442;7.016;2024-01-30T02:07:27;4.30;;;4.10;;
1428;SDS011;708;51.442;7.016;2024-01-30T02:09:54;4.20;;;4.00;;
1428;SDS011;708;51.442;7.016;2024-01-30T02:12:21;5.35;;;5.15;;
1428;SDS011;708;51.442;7.016;2024-01-30T02:14:48;5.30;;;5.00;;
1428;SDS011;708;51.442;7.016;2024-01-30T02:17:15;4.65;;;4.45;;
1428;SDS011;708;51.442;7.016;2024-01-30T02:19:43;5.75;;;5.45;;
1428;SDS011;708;51.442;7.016;2024-01-30T02:22:11;4.63;;;4.43;;
1428;SDS011;708;51.442;7.016;2024-01-30T02:24:38;5.05;;;4.65;;
1428;SDS011;708;51.442;7.016;2024-01-30T02:27:05;4.10;;;3.90;;
1428;SDS011;708;51.442;7.016;2024-01-30T02:29:32;5.05;;;4.85;;
1428;SDS011;708;51.442;7.016;2024-01-30T02:31:59;4.45;;;4.25;;
1428;SDS011;708;51.442;7.016;2024-01-30T02:34:26;4.63;;;4.43;;
1428;SDS011;708;51.442;7.016;2024-01-30T02:36:52;6.25;;;5.95;;
1428;SDS011;708;51.442;7.016;2024-01-30T02:39:22;5.22;;;5.03;;
1428;SDS011;708;51.442;7.016;2024-01-30T02:41:59;4.38;;;4.18;;
1428;SDS011;708;51.442;7.016;2024-01-30T02:44:26;4.95;;;4.75;;
1428;SDS011;708;51.442;7.016;2024-01-30T02:46:53;5.15;;;4.95;;
1428;SDS011;708;51.442;7.016;2024-01-30T02:49:20;4.50;;;4.30;;
1428;SDS011;708;51.442;7.016;2024-01-30T02:51:47;4.65;;;4.45;;
1428;SDS011;708;51.442;7.016;2024-01-30T02:54:14;4.25;;;4.05;;
1428;SDS011;708;51.442;7.016;2024-01-30T02:56:43;4.55;;;4.35;;
1428;SDS011;708;51.442;7.016;2024-01-30T02:59:10;5.00;;;4.80;;
1428;SDS011;708;51.442;7.016;2024-01-30T03:01:42;4.88;;;4.68;;
1428;SDS011;708;51.442;7.016;2024-01-30T03:04:09;3.90;;;3.70;;
1428;SDS011;708;51.442;7.016;2024-01-30T03:06:36;4.18;;;3.97;;
1428;SDS011;708;51.442;7.016;2024-01-30T03:09:03;4.45;;;4.25;;
1428;SDS011;708;51.442;7.016;2024-01-30T03:11:29;4.55;;;4.35;;
1428;SDS011;708;51.442;7.016;2024-01-30T03:13:58;4.45;;;4.25;;
1428;SDS011;708;51.442;7.016;2024-01-30T03:16:24;4.45;;;4.25;;
1428;SDS011;708;51.442;7.016;2024-01-30T03:18:51;4.50;;;4.30;;
1428;SDS011;708;51.442;7.016;2024-01-30T03:21:18;4.43;;;4.22;;
1428;SDS011;708;51.442;7.016;2024-01-30T03:23:45;4.30;;;4.10;;
1428;SDS011;708;51.442;7.016;2024-01-30T03:26:11;4.57;;;4.38;;
1428;SDS011;708;51.442;7.016;2024-01-30T03:28:39;4.28;;;4.07;;
1428;SDS011;708;51.442;7.016;2024-01-30T03:31:07;4.63;;;4.43;;
1428;SDS011;708;51.442;7.016;2024-01-30T03:33:34;4.45;;;4.25;;
1428;SDS011;708;51.442;7.016;2024-01-30T03:36:03;4.45;;;4.25;;
1428;SDS011;708;51.442;7.016;2024-01-30T03:38:31;5.68;;;5.47;;
1428;SDS011;708;51.442;7.016;2024-01-30T03:40:58;4.00;;;3.80;;
1428;SDS011;708;51.442;7.016;2024-01-30T03:43:25;5.15;;;4.95;;
1428;SDS011;708;51.442;7.016;2024-01-30T03:45:52;5.95;;;5.65;;
1428;SDS011;708;51.442;7.016;2024-01-30T03:48:20;4.95;;;4.75;;
1428;SDS011;708;51.442;7.016;2024-01-30T03:50:47;5.07;;;4.88;;
1428;SDS011;708;51.442;7.016;2024-01-30T03:53:14;4.72;;;4.53;;
1428;SDS011;708;51.442;7.016;2024-01-30T03:55:41;7.15;;;6.85;;
1428;SDS011;708;51.442;7.016;2024-01-30T03:58:08;5.00;;;4.80;;
1428;SDS011;708;51.442;7.016;2024-01-30T04:00:35;5.53;;;5.32;;
1428;SDS011;708;51.442;7.016;2024-01-30T04:03:02;5.47;;;5.28;;
1428;SDS011;708;51.442;7.016;2024-01-30T04:05:30;4.50;;;4.30;;
1428;SDS011;708;51.442;7.016;2024-01-30T04:07:57;5.45;;;5.25;;
1428;SDS011;708;51.442;7.016;2024-01-30T04:10:24;4.85;;;4.65;;
1428;SDS011;708;51.442;7.016;2024-01-30T04:12:51;5.00;;;4.80;;
1428;SDS011;708;51.442;7.016;2024-01-30T04:15:19;5.10;;;4.90;;
1428;SDS011;708;51.442;7.016;2024-01-30T04:17:45;4.95;;;4.75;;
1428;SDS011;708;51.442;7.016;2024-01-30T04:20:13;5.32;;;5.13;;
1428;SDS011;708;51.442;7.016;2024-01-30T04:22:43;4.93;;;4.72;;
1428;SDS011;708;51.442;7.016;2024-01-30T04:25:10;4.93;;;4.72;;
1428;SDS011;708;51.442;7.016;2024-01-30T04:27:37;4.60;;;4.40;;
1428;SDS011;708;51.442;7.016;2024-01-30T04:30:04;5.25;;;5.05;;
1428;SDS011;708;51.442;7.016;2024-01-30T04:32:32;6.60;;;6.30;;
1428;SDS011;708;51.442;7.016;2024-01-30T04:34:59;5.13;;;4.93;;
1428;SDS011;708;51.442;7.016;2024-01-30T04:37:25;4.80;;;4.60;;
1428;SDS011;708;51.442;7.016;2024-01-30T04:39:54;5.10;;;4.90;;
1428;SDS011;708;51.442;7.016;2024-01-30T04:42:21;4.25;;;4.05;;
1428;SDS011;708;51.442;7.016;2024-01-30T04:44:47;4.95;;;4.75;;
1428;SDS011;708;51.442;7.016;2024-01-30T04:47:14;5.45;;;5.25;;
1428;SDS011;708;51.442;7.016;2024-01-30T04:49:41;5.65;;;5.45;;
1428;SDS011;708;51.442;7.016;2024-01-30T04:52:08;6.15;;;5.95;;
1428;SDS011;708;51.442;7.016;2024-01-30T04:54:35;7.15;;;6.85;;
1428;SDS011;708;51.442;7.016;2024-01-30T04:57:04;7.43;;;7.15;;
1428;SDS011;708;51.442;7.016;2024-01-30T04:59:34;7.20;;;6.93;;
1428;SDS011;708;51.442;7.016;2024-01-30T05:02:01;6.13;;;5.93;;
1428;SDS011;708;51.442;7.016;2024-01-30T05:04:28;6.47;;;6.28;;
1428;SDS011;708;51.442;7.016;2024-01-30T05:06:55;6.53;;;6.32;;
1428;SDS011;708;51.442;7.016;2024-01-30T05:09:21;7.22;;;6.93;;
1428;SDS011;708;51.442;7.016;2024-01-30T05:11:48;6.50;;;6.30;;
1428;SDS011;708;51.442;7.016;2024-01-30T05:14:16;8.40;;;7.90;;
1428;SDS011;708;51.442;7.016;2024-01-30T05:16:43;6.95;;;6.65;;
1428;SDS011;708;51.442;7.016;2024-01-30T05:19:12;8.15;;;7.18;;
1428;SDS011;708;51.442;7.016;2024-01-30T05:21:39;8.30;;;8.00;;
1428;SDS011;708;51.442;7.016;2024-01-30T05:24:06;7.13;;;6.82;;
1428;SDS011;708;51.442;7.016;2024-01-30T05:26:34;6.25;;;6.05;;
1428;SDS011;708;51.442;7.016;2024-01-30T05:29:01;6.10;;;5.90;;
1428;SDS011;708;51.442;7.016;2024-01-30T05:31:30;7.97;;;7.35;;
1428;SDS011;708;51.442;7.016;2024-01-30T05:33:57;9.27;;;8.77;;
1428;SDS011;708;51.442;7.016;2024-01-30T05:36:24;7.20;;;6.90;;
1428;SDS011;708;51.442;7.016;2024-01-30T05:38:50;7.55;;;7.20;;
1428;SDS011;708;51.442;7.016;2024-01-30T05:41:17;5.40;;;5.20;;
1428;SDS011;708;51.442;7.016;2024-01-30T05:43:44;5.45;;;5.25;;
1428;SDS011;708;51.442;7.016;2024-01-30T05:46:11;6.85;;;6.55;;
1428;SDS011;708;51.442;7.016;2024-01-30T05:48:39;6.35;;;6.05;;
1428;SDS011;708;51.442;7.016;2024-01-30T05:51:06;6.57;;;6.38;;
1428;SDS011;708;51.442;7.016;2024-01-30T05:53:34;5.13;;;4.93;;
1428;SDS011;708;51.442;7.016;2024-01-30T05:56:01;5.03;;;4.82;;
1428;SDS011;708;51.442;7.016;2024-01-30T05:58:28;5.93;;;5.72;;
1428;SDS011;708;51.442;7.016;2024-01-30T06:00:56;5.85;;;5.65;;
1428;SDS011;708;51.442;7.016;2024-01-30T06:03:23;6.32;;;6.13;;
1428;SDS011;708;51.442;7.016;2024-01-30T06:05:51;5.75;;;5.55;;
1428;SDS011;708;51.442;7.016;2024-01-30T06:08:18;5.88;;;5.68;;
1428;SDS011;708;51.442;7.016;2024-01-30T06:10:45;10.52;;;8.90;;
1428;SDS011;708;51.442;7.016;2024-01-30T06:13:12;5.88;;;5.68;;
1428;SDS011;708;51.442;7.016;2024-01-30T06:15:39;8.38;;;7.97;;
1428;SDS011;708;51.442;7.016;2024-01-30T06:18:06;7.82;;;7.53;;
1428;SDS011;708;51.442;7.016;2024-01-30T06:20:33;7.88;;;7.57;;
1428;SDS011;708;51.442;7.016;2024-01-30T06:23:02;7.60;;;7.32;;
1428;SDS011;708;51.442;7.016;2024-01-30T06:25:28;7.45;;;7.15;;
1428;SDS011;708;51.442;7.016;2024-01-30T06:27:55;6.75;;;6.55;;
1428;SDS011;708;51.442;7.016;2024-01-30T06:30:22;7.57;;;7.28;;
1428;SDS011;708;51.442;7.016;2024-01-30T06:32:49;6.70;;;6.50;;
1428;SDS011;708;51.442;7.016;2024-01-30T06:35:15;6.95;;;6.75;;
1428;SDS011;708;51.442;7.016;2024-01-30T06:37:43;6.53;;;6.32;;
1428;SDS011;708;51.442;7.016;2024-01-30T06:40:11;6.47;;;6.28;;
1428;SDS011;708;51.442;7.016;2024-01-30T06:42:38;6.80;;;6.50;;
1428;SDS011;708;51.442;7.016;2024-01-30T06:45:05;6.40;;;6.20;;
1428;SDS011;708;51.442;7.016;2024-01-30T06:47:33;9.13;;;8.80;;
1428;SDS011;708;51.442;7.016;2024-01-30T06:50:00;6.53;;;6.32;;
1428;SDS011;708;51.442;7.016;2024-01-30T06:52:27;7.80;;;7.50;;
1428;SDS011;708;51.442;7.016;2024-01-30T06:54:53;7.63;;;7.32;;
1428;SDS011;708;51.442;7.016;2024-01-30T06:57:22;7.43;;;7.13;;
1428;SDS011;708;51.442;7.016;2024-01-30T06:59:48;8.15;;;7.85;;
1428;SDS011;708;51.442;7.016;2024-01-30T07:02:15;8.73;;;8.43;;
1428;SDS011;708;51.442;7.016;2024-01-30T07:04:42;7.70;;;7.40;;
1428;SDS011;708;51.442;7.016;2024-01-30T07:07:09;7.30;;;7.00;;
1428;SDS011;708;51.442;7.016;2024-01-30T07:09:38;7.43;;;7.13;;
1428;SDS011;708;51.442;7.016;2024-01-30T07:12:05;6.90;;;6.70;;
1428;SDS011;708;51.442;7.016;2024-01-30T07:14:33;8.40;;;8.10;;
1428;SDS011;708;51.442;7.016;2024-01-30T07:17:00;8.32;;;8.02;;
1428;SDS011;708;51.442;7.016;2024-01-30T07:19:27;8.35;;;8.05;;
1428;SDS011;708;51.442;7.016;2024-01-30T07:21:54;7.30;;;7.00;;
1428;SDS011;708;51.442;7.016;2024-01-30T07:24:20;8.52;;;8.13;;
1428;SDS011;708;51.442;7.016;2024-01-30T07:26:47;9.23;;;8.93;;
1428;SDS011;708;51.442;7.016;2024-01-30T07:29:15;8.55;;;8.25;;
1428;SDS011;708;51.442;7.016;2024-01-30T07:31:49;8.52;;;8.23;;
1428;SDS011;708;51.442;7.016;2024-01-30T07:34:16;7.25;;;6.95;;
1428;SDS011;708;51.442;7.016;2024-01-30T07:36:43;7.10;;;6.82;;
1428;SDS011;708;51.442;7.016;2024-01-30T07:39:09;9.20;;;8.90;;
1428;SDS011;708;51.442;7.016;2024-01-30T07:41:36;8.05;;;7.75;;
1428;SDS011;708;51.442;7.016;2024-01-30T07:44:03;10.25;;;9.65;;
1428;SDS011;708;51.442;7.016;2024-01-30T07:46:30;7.13;;;6.82;;
1428;SDS011;708;51.442;7.016;2024-01-30T07:48:58;7.32;;;7.03;;
1428;SDS011;708;51.442;7.016;2024-01-30T07:51:25;6.68;;;6.47;;
1428;SDS011;708;51.442;7.016;2024-01-30T07:53:53;6.68;;;6.47;;
1428;SDS011;708;51.442;7.016;2024-01-30T07:56:20;7.22;;;6.93;;
1428;SDS011;708;51.442;7.016;2024-01-30T07:58:47;7.13;;;6.82;;
1428;SDS011;708;51.442;7.016;2024-01-30T08:01:14;6.90;;;6.60;;
1428;SDS011;708;51.442;7.016;2024-01-30T08:03:41;7.20;;;6.90;;
1428;SDS011;708;51.442;7.016;2024-01-30T08:06:09;8.18;;;7.85;;
1428;SDS011;708;51.442;7.016;2024-01-30T08:08:36;9.40;;;9.00;;
1428;SDS011;708;51.442;7.016;2024-01-30T08:11:03;9.93;;;9.40;;
1428;SDS011;708;51.442;7.016;2024-01-30T08:13:30;8.52;;;8.23;;
1428;SDS011;708;51.442;7.016;2024-01-30T08:15:56;8.38;;;8.07;;
1428;SDS011;708;51.442;7.016;2024-01-30T08:18:23;8.38;;;8.07;;
1428;SDS011;708;51.442;7.016;2024-01-30T08:20:50;8.27;;;7.97;;
1428;SDS011;708;51.442;7.016;2024-01-30T08:23:18;10.05;;;9.60;;
1428;SDS011;708;51.442;7.016;2024-01-30T08:25:44;8.18;;;7.88;;
1428;SDS011;708;51.442;7.016;2024-01-30T08:28:11;7.72;;;7.43;;
1428;SDS011;708;51.442;7.016;2024-01-30T08:30:38;8.02;;;7.65;;
1428;SDS011;708;51.442;7.016;2024-01-30T08:33:05;7.18;;;6.88;;
1428;SDS011;708;51.442;7.016;2024-01-30T08:35:31;8.85;;;8.55;;
1428;SDS011;708;51.442;7.016;2024-01-30T08:37:58;8.40;;;8.10;;
1428;SDS011;708;51.442;7.016;2024-01-30T08:40:26;7.80;;;7.50;;
1428;SDS011;708;51.442;7.016;2024-01-30T08:42:53;8.50;;;8.20;;
1428;SDS011;708;51.442;7.016;2024-01-30T08:45:20;7.30;;;7.00;;
1428;SDS011;708;51.442;7.016;2024-01-30T08:47:47;7.90;;;7.60;;
1428;SDS011;708;51.442;7.016;2024-01-30T08:50:14;8.20;;;7.90;;
1428;SDS011;708;51.442;7.016;2024-01-30T08:52:40;7.65;;;7.35;;
1428;SDS011;708;51.442;7.016;2024-01-30T08:55:07;6.53;;;6.32;;
1428;SDS011;708;51.442;7.016;2024-01-30T08:57:36;7.28;;;6.97;;
1428;SDS011;708;51.442;7.016;2024-01-30T09:00:03;7.50;;;7.20;;
1428;SDS011;708;51.442;7.016;2024-01-30T09:02:31;6.63;;;6.43;;
1428;SDS011;708;51.442;7.016;2024-01-30T09:04:58;7.38;;;7.07;;
1428;SDS011;708;51.442;7.016;2024-01-30T09:07:25;8.05;;;7.75;;
1428;SDS011;708;51.442;7.016;2024-01-30T09:09:51;7.32;;;7.03;;
1428;SDS011;708;51.442;7.016;2024-01-30T09:12:18;7.30;;;7.03;;
1428;SDS011;708;51.442;7.016;2024-01-30T09:14:46;7.03;;;6.72;;
1428;SDS011;708;51.442;7.016;2024-01-30T09:17:13;6.65;;;6.45;;
1428;SDS011;708;51.442;7.016;2024-01-30T09:19:40;6.53;;;6.22;;
1428;SDS011;708;51.442;7.016;2024-01-30T09:22:07;8.32;;;7.97;;
1428;SDS011;708;51.442;7.016;2024-01-30T09:24:33;8.05;;;7.60;;
1428;SDS011;708;51.442;7.016;2024-01-30T09:27:00;7.88;;;7.30;;
1428;SDS011;708;51.442;7.016;2024-01-30T09:29:27;9.43;;;9.00;;
1428;SDS011;708;51.442;7.016;2024-01-30T09:31:55;7.88;;;7.43;;
1428;SDS011;708;51.442;7.016;2024-01-30T09:34:22;8.55;;;8.15;;
1428;SDS011;708;51.442;7.016;2024-01-30T09:36:49;7.53;;;7.22;;
1428;SDS011;708;51.442;7.016;2024-01-30T09:39:16;8.57;;;8.27;;
1428;SDS011;708;51.442;7.016;2024-01-30T09:41:45;7.90;;;7.60;;
1428;SDS011;708;51.442;7.016;2024-01-30T09:44:15;8.23;;;7.93;;
1428;SDS011;708;51.442;7.016;2024-01-30T09:46:42;8.02;;;7.72;;
1428;SDS011;708;51.442;7.016;2024-01-30T09:49:11;9.05;;;8.65;;
1428;SDS011;708;51.442;7.016;2024-01-30T09:51:37;6.57;;;6.35;;
1428;SDS011;708;51.442;7.016;2024-01-30T09:54:05;6.95;;;6.68;;
1428;SDS011;708;51.442;7.016;2024-01-30T09:56:34;8.57;;;8.27;;
1428;SDS011;708;51.442;7.016;2024-01-30T09:59:01;9.07;;;8.68;;
1428;SDS011;708;51.442;7.016;2024-01-30T10:01:27;6.20;;;6.00;;
1428;SDS011;708;51.442;7.016;2024-01-30T10:03:55;8.32;;;7.85;;
1428;SDS011;708;51.442;7.016;2024-01-30T10:06:23;7.32;;;7.03;;
1428;SDS011;708;51.442;7.016;2024-01-30T10:08:51;6.68;;;6.45;;
1428;SDS011;708;51.442;7.016;2024-01-30T10:11:18;8.18;;;7.88;;
1428;SDS011;708;51.442;7.016;2024-01-30T10:13:44;8.48;;;8.18;;
1428;SDS011;708;51.442;7.016;2024-01-30T10:16:13;12.88;;;12.10;;
1428;SDS011;708;51.442;7.016;2024-01-30T10:18:40;7.93;;;7.55;;
1428;SDS011;708;51.442;7.016;2024-01-30T10:21:07;8.85;;;8.55;;
1428;SDS011;708;51.442;7.016;2024-01-30T10:23:36;8.43;;;8.02;;
1428;SDS011;708;51.442;7.016;2024-01-30T10:26:04;8.00;;;7.70;;
1428;SDS011;708;51.442;7.016;2024-01-30T10:28:31;7.32;;;7.03;;
1428;SDS011;708;51.442;7.016;2024-01-30T10:30:58;8.15;;;7.75;;
1428;SDS011;708;51.442;7.016;2024-01-30T10:33:25;9.15;;;8.75;;
1428;SDS011;708;51.442;7.016;2024-01-30T10:35:53;9.80;;;9.40;;
1428;SDS011;708;51.442;7.016;2024-01-30T10:38:26;10.00;;;9.50;;
1428;SDS011;708;51.442;7.016;2024-01-30T10:40:57;9.60;;;9.20;;
1428;SDS011;708;51.442;7.016;2024-01-30T10:43:24;8.05;;;7.75;;
1428;SDS011;708;51.442;7.016;2024-01-30T10:45:59;8.02;;;7.72;;
1428;SDS011;708;51.442;7.016;2024-01-30T10:48:32;7.93;;;7.63;;
1428;SDS011;708;51.442;7.016;2024-01-30T10:51:08;9.50;;;9.10;;
1428;SDS011;708;51.442;7.016;2024-01-30T10:53:37;9.13;;;8.82;;
1428;SDS011;708;51.442;7.016;2024-01-30T10:56:06;10.25;;;9.75;;
1428;SDS011;708;51.442;7.016;2024-01-30T10:58:36;8.90;;;8.50;;
1428;SDS011;708;51.442;7.016;2024-01-30T11:01:03;7.63;;;7.32;;
1428;SDS011;708;51.442;7.016;2024-01-30T11:03:32;9.68;;;9.27;;
1428;SDS011;708;51.442;7.016;2024-01-30T11:06:02;8.02;;;7.32;;
1428;SDS011;708;51.442;7.016;2024-01-30T11:08:31;7.90;;;7.60;;
1428;SDS011;708;51.442;7.016;2024-01-30T11:10:58;9.48;;;9.02;;
1428;SDS011;708;51.442;7.016;2024-01-30T11:13:30;8.07;;;7.78;;
1428;SDS011;708;51.442;7.016;2024-01-30T11:16:00;8.98;;;8.40;;
1428;SDS011;708;51.442;7.016;2024-01-30T11:18:28;7.40;;;7.10;;
1428;SDS011;708;51.442;7.016;2024-01-30T11:20:56;8.10;;;7.80;;
1428;SDS011;708;51.442;7.016;2024-01-30T11:23:26;9.43;;;9.02;;
1428;SDS011;708;51.442;7.016;2024-01-30T11:25:53;7.82;;;7.53;;
1428;SDS011;708;51.442;7.016;2024-01-30T11:28:21;7.57;;;7.28;;
1428;SDS011;708;51.442;7.016;2024-01-30T11:30:49;7.97;;;7.68;;
1428;SDS011;708;51.442;7.016;2024-01-30T11:33:26;8.45;;;8.15;;
1428;SDS011;708;51.442;7.016;2024-01-30T11:35:55;9.38;;;8.98;;
1428;SDS011;708;51.442;7.016;2024-01-30T11:38:24;10.05;;;9.65;;
1428;SDS011;708;51.442;7.016;2024-01-30T11:40:52;10.55;;;10.15;;
1428;SDS011;708;51.442;7.016;2024-01-30T11:43:20;9.25;;;8.95;;
1428;SDS011;708;51.442;7.016;2024-01-30T11:45:47;9.40;;;9.10;;
1428;SDS011;708;51.442;7.016;2024-01-30T11:48:15;8.55;;;8.15;;
1428;SDS011;708;51.442;7.016;2024-01-30T11:50:42;7.03;;;6.72;;
1428;SDS011;708;51.442;7.016;2024-01-30T11:53:10;9.85;;;9.45;;
1428;SDS011;708;51.442;7.016;2024-01-30T11:55:37;10.95;;;9.90;;
1428;SDS011;708;51.442;7.016;2024-01-30T11:58:04;9.73;;;9.32;;
1428;SDS011;708;51.442;7.016;2024-01-30T12:00:31;10.25;;;9.65;;
1428;SDS011;708;51.442;7.016;2024-01-30T12:02:58;10.43;;;10.02;;
1428;SDS011;708;51.442;7.016;2024-01-30T12:05:27;8.25;;;7.95;;
1428;SDS011;708;51.442;7.016;2024-01-30T12:07:54;9.85;;;9.40;;
1428;SDS011;708;51.442;7.016;2024-01-30T12:10:23;9.20;;;8.90;;
1428;SDS011;708;51.442;7.016;2024-01-30T12:12:51;10.48;;;10.07;;
1428;SDS011;708;51.442;7.016;2024-01-30T12:15:18;8.75;;;8.45;;
1428;SDS011;708;51.442;7.016;2024-01-30T12:17:47;9.13;;;8.82;;
1428;SDS011;708;51.442;7.016;2024-01-30T12:20:15;10.52;;;10.13;;
1428;SDS011;708;51.442;7.016;2024-01-30T12:22:45;8.23;;;7.93;;
1428;SDS011;708;51.442;7.016;2024-01-30T12:25:13;8.05;;;7.75;;
1428;SDS011;708;51.442;7.016;2024-01-30T12:27:42;14.15;;;10.00;;
1428;SDS011;708;51.442;7.016;2024-01-30T12:30:10;7.75;;;7.45;;
1428;SDS011;708;51.442;7.016;2024-01-30T12:32:39;7.93;;;7.63;;
1428;SDS011;708;51.442;7.016;2024-01-30T12:35:08;12.85;;;11.93;;
1428;SDS011;708;51.442;7.016;2024-01-30T12:37:36;8.02;;;7.72;;
1428;SDS011;708;51.442;7.016;2024-01-30T12:40:05;9.18;;;8.77;;
1428;SDS011;708;51.442;7.016;2024-01-30T12:42:34;9.25;;;8.85;;
1428;SDS011;708;51.442;7.016;2024-01-30T12:45:02;8.25;;;7.95;;
1428;SDS011;708;51.442;7.016;2024-01-30T12:47:29;7.68;;;7.38;;
1428;SDS011;708;51.442;7.016;2024-01-30T12:49:56;8.98;;;8.68;;
1428;SDS011;708;51.442;7.016;2024-01-30T12:52:23;7.88;;;7.57;;
1428;SDS011;708;51.442;7.016;2024-01-30T12:54:50;32.03;;;9.18;;
1428;SDS011;708;51.442;7.016;2024-01-30T12:57:19;11.13;;;10.52;;
1428;SDS011;708;51.442;7.016;2024-01-30T12:59:46;7.60;;;7.30;;
1428;SDS011;708;51.442;7.016;2024-01-30T13:02:13;7.85;;;7.55;;
1428;SDS011;708;51.442;7.016;2024-01-30T13:04:41;7.18;;;6.88;;
1428;SDS011;708;51.442;7.016;2024-01-30T13:07:09;7.28;;;6.97;;
1428;SDS011;708;51.442;7.016;2024-01-30T13:09:38;7.93;;;7.63;;
1428;SDS011;708;51.442;7.016;2024-01-30T13:12:06;8.00;;;7.70;;
1428;SDS011;708;51.442;7.016;2024-01-30T13:14:34;7.90;;;7.60;;
1428;SDS011;708;51.442;7.016;2024-01-30T13:17:01;7.20;;;6.90;;
1428;SDS011;708;51.442;7.016;2024-01-30T13:19:28;6.97;;;6.57;;
1428;SDS011;708;51.442;7.016;2024-01-30T13:21:54;6.75;;;6.45;;
1428;SDS011;708;51.442;7.016;2024-01-30T13:24:21;8.35;;;8.05;;
1428;SDS011;708;51.442;7.016;2024-01-30T13:26:48;7.05;;;6.75;;
1428;SDS011;708;51.442;7.016;2024-01-30T13:29:15;8.07;;;7.78;;
1428;SDS011;708;51.442;7.016;2024-01-30T13:31:43;6.68;;;6.47;;
1428;SDS011;708;51.442;7.016;2024-01-30T13:34:12;7.35;;;7.05;;
1428;SDS011;708;51.442;7.016;2024-01-30T13:36:39;6.70;;;6.45;;
1428;SDS011;708;51.442;7.016;2024-01-30T13:39:06;7.75;;;7.45;;
1428;SDS011;708;51.442;7.016;2024-01-30T13:41:36;7.40;;;7.10;;
1428;SDS011;708;51.442;7.016;2024-01-30T13:44:02;8.00;;;7.68;;
1428;SDS011;708;51.442;7.016;2024-01-30T13:46:29;7.68;;;7.38;;
1428;SDS011;708;51.442;7.016;2024-01-30T13:48:58;7.43;;;7.13;;
1428;SDS011;708;51.442;7.016;2024-01-30T13:51:24;7.57;;;7.28;;
1428;SDS011;708;51.442;7.016;2024-01-30T13:53:50;8.27;;;7.97;;
1428;SDS011;708;51.442;7.016;2024-01-30T13:56:17;7.25;;;6.95;;
1428;SDS011;708;51.442;7.016;2024-01-30T13:58:45;8.10;;;7.70;;
1428;SDS011;708;51.442;7.016;2024-01-30T14:01:12;6.57;;;6.38;;
1428;SDS011;708;51.442;7.016;2024-01-30T14:03:38;7.70;;;7.40;;
1428;SDS011;708;51.442;7.016;2024-01-30T14:06:06;8.57;;;8.27;;
1428;SDS011;708;51.442;7.016;2024-01-30T14:08:34;6.80;;;6.60;;
1428;SDS011;708;51.442;7.016;2024-01-30T14:11:00;6.82;;;6.60;;
1428;SDS011;708;51.442;7.016;2024-01-30T14:13:28;8.07;;;7.78;;
1428;SDS011;708;51.442;7.016;2024-01-30T14:15:56;7.18;;;6.90;;
1428;SDS011;708;51.442;7.016;2024-01-30T14:18:22;6.47;;;6.28;;
1428;SDS011;708;51.442;7.016;2024-01-30T14:20:50;7.60;;;7.30;;
1428;SDS011;708;51.442;7.016;2024-01-30T14:23:19;5.97;;;5.78;;
1428;SDS011;708;51.442;7.016;2024-01-30T14:25:46;6.60;;;6.22;;
1428;SDS011;708;51.442;7.016;2024-01-30T14:28:13;7.70;;;7.30;;
1428;SDS011;708;51.442;7.016;2024-01-30T14:30:40;6.80;;;6.50;;
1428;SDS011;708;51.442;7.016;2024-01-30T14:33:07;6.75;;;6.35;;
1428;SDS011;708;51.442;7.016;2024-01-30T14:35:34;6.13;;;5.93;;
1428;SDS011;708;51.442;7.016;2024-01-30T14:38:01;5.88;;;5.68;;
1428;SDS011;708;51.442;7.016;2024-01-30T14:40:31;6.13;;;5.72;;
1428;SDS011;708;51.442;7.016;2024-01-30T14:42:58;5.40;;;5.10;;
1428;SDS011;708;51.442;7.016;2024-01-30T14:45:24;5.70;;;5.45;;
1428;SDS011;708;51.442;7.016;2024-01-30T14:47:51;5.97;;;5.78;;
1428;SDS011;708;51.442;7.016;2024-01-30T14:50:21;5.75;;;5.45;;
1428;SDS011;708;51.442;7.016;2024-01-30T14:52:48;6.13;;;5.93;;
1428;SDS011;708;51.442;7.016;2024-01-30T14:55:18;5.90;;;5.70;;
1428;SDS011;708;51.442;7.016;2024-01-30T14:57:46;14.40;;;7.05;;
1428;SDS011;708;51.442;7.016;2024-01-30T15:00:14;5.90;;;5.70;;
1428;SDS011;708;51.442;7.016;2024-01-30T15:02:42;6.50;;;6.30;;
1428;SDS011;708;51.442;7.016;2024-01-30T15:05:11;7.20;;;6.90;;
1428;SDS011;708;51.442;7.016;2024-01-30T15:07:38;6.50;;;6.20;;
1428;SDS011;708;51.442;7.016;2024-01-30T15:10:06;5.63;;;5.43;;
1428;SDS011;708;51.442;7.016;2024-01-30T15:12:33;5.78;;;5.57;;
1428;SDS011;708;51.442;7.016;2024-01-30T15:15:04;6.88;;;6.50;;
1428;SDS011;708;51.442;7.016;2024-01-30T15:17:34;6.13;;;5.80;;
1428;SDS011;708;51.442;7.016;2024-01-30T15:20:01;5.78;;;5.47;;
1428;SDS011;708;51.442;7.016;2024-01-30T15:22:28;5.05;;;4.85;;
1428;SDS011;708;51.442;7.016;2024-01-30T15:24:55;5.85;;;5.65;;
1428;SDS011;708;51.442;7.016;2024-01-30T15:27:22;5.18;;;4.97;;
1428;SDS011;708;51.442;7.016;2024-01-30T15:29:50;5.38;;;5.18;;
1428;SDS011;708;51.442;7.016;2024-01-30T15:32:18;5.40;;;5.20;;